sensor_id;sensor_type;location;lat;lon;timestamp;P1;durP1;ratioP1;P2;durP2;ratioP2
64353;SDS011;50681;53.334;-6.536;2022-09-09T00:04:31;21.52;;;5.90;;
64353;SDS011;50681;53.334;-6.536;2022-09-09T00:12:17;14.75;;;5.40;;
64353;SDS011;50681;53.334;-6.536;2022-09-09T00:14:48;21.38;;;5.63;;
64353;SDS011;50681;53.334;-6.536;2022-09-09T00:17:36;191.57;;;10.75;;
64353;SDS011;50681;53.334;-6.536;2022-09-09T00:20:12;24.02;;;6.20;;
64353;SDS011;50681;53.334;-6.536;2022-09-09T00:22:48;19.90;;;6.35;;
64353;SDS011;50681;53.334;-6.536;2022-09-09T00:25:49;24.25;;;7.63;;
64353;SDS011;50681;53.334;-6.536;2022-09-09T00:28:19;25.23;;;7.55;;
64353;SDS011;50681;53.334;-6.536;2022-09-09T00:30:47;25.50;;;7.30;;
64353;SDS011;50681;53.334;-6.536;2022-09-09T00:33:13;26.93;;;7.30;;
64353;SDS011;50681;53.334;-6.536;2022-09-09T00:35:53;19.50;;;7.57;;
64353;SDS011;50681;53.334;-6.536;2022-09-09T00:38:36;27.48;;;7.82;;
64353;SDS011;50681;53.334;-6.536;2022-09-09T00:41:20;26.05;;;7.35;;
64353;SDS011;50681;53.334;-6.536;2022-09-09T00:55:21;15.45;;;6.93;;
64353;SDS011;50681;53.334;-6.536;2022-09-09T00:57:53;13.60;;;5.90;;
64353;SDS011;50681;53.334;-6.536;2022-09-09T01:00:25;18.40;;;6.60;;
64353;SDS011;50681;53.334;-6.536;2022-09-09T01:11:22;21.27;;;6.00;;
64353;SDS011;50681;53.334;-6.536;2022-09-09T01:13:55;14.23;;;5.80;;
64353;SDS011;50681;53.334;-6.536;2022-09-09T01:16:26;17.85;;;7.07;;
64353;SDS011;50681;53.334;-6.536;2022-09-09T01:18:55;14.98;;;6.57;;
64353;SDS011;50681;53.334;-6.536;2022-09-09T01:21:33;20.30;;;6.70;;
64353;SDS011;50681;53.334;-6.536;2022-09-09T01:27:05;17.13;;;6.38;;
64353;SDS011;50681;53.334;-6.536;2022-09-09T01:29:32;17.92;;;7.10;;
64353;SDS011;50681;53.334;-6.536;2022-09-09T01:31:59;14.63;;;7.00;;
64353;SDS011;50681;53.334;-6.536;2022-09-09T01:34:27;15.38;;;6.90;;
64353;SDS011;50681;53.334;-6.536;2022-09-09T01:37:06;13.63;;;6.95;;
64353;SDS011;50681;53.334;-6.536;2022-09-09T01:39:34;23.70;;;7.50;;
64353;SDS011;50681;53.334;-6.536;2022-09-09T01:42:01;26.52;;;7.20;;
64353;SDS011;50681;53.334;-6.536;2022-09-09T01:44:30;18.55;;;7.80;;
64353;SDS011;50681;53.334;-6.536;2022-09-09T01:46:56;20.17;;;7.82;;
64353;SDS011;50681;53.334;-6.536;2022-09-09T01:49:30;19.52;;;7.40;;
64353;SDS011;50681;53.334;-6.536;2022-09-09T01:51:58;20.75;;;7.97;;
64353;SDS011;50681;53.334;-6.536;2022-09-09T02:00:10;19.55;;;8.30;;
64353;SDS011;50681;53.334;-6.536;2022-09-09T02:08:48;19.98;;;8.15;;
64353;SDS011;50681;53.334;-6.536;2022-09-09T02:13:43;19.60;;;7.87;;
64353;SDS011;50681;53.334;-6.536;2022-09-09T02:21:41;15.43;;;5.22;;
64353;SDS011;50681;53.334;-6.536;2022-09-09T02:24:09;24.63;;;8.40;;
64353;SDS011;50681;53.334;-6.536;2022-09-09T02:26:40;17.42;;;7.72;;
64353;SDS011;50681;53.334;-6.536;2022-09-09T02:29:17;19.42;;;8.85;;
64353;SDS011;50681;53.334;-6.536;2022-09-09T02:31:47;19.20;;;7.68;;
64353;SDS011;50681;53.334;-6.536;2022-09-09T02:34:14;15.43;;;8.10;;
64353;SDS011;50681;53.334;-6.536;2022-09-09T02:36:45;16.52;;;7.07;;
64353;SDS011;50681;53.334;-6.536;2022-09-09T02:39:19;19.70;;;7.00;;
64353;SDS011;50681;53.334;-6.536;2022-09-09T02:41:54;21.85;;;7.63;;
64353;SDS011;50681;53.334;-6.536;2022-09-09T02:44:19;16.83;;;8.20;;
64353;SDS011;50681;53.334;-6.536;2022-09-09T02:52:07;19.80;;;6.75;;
64353;SDS011;50681;53.334;-6.536;2022-09-09T02:54:37;13.55;;;6.35;;
64353;SDS011;50681;53.334;-6.536;2022-09-09T02:59:35;11.48;;;6.05;;
64353;SDS011;50681;53.334;-6.536;2022-09-09T03:02:00;22.80;;;6.97;;
64353;SDS011;50681;53.334;-6.536;2022-09-09T03:04:26;17.57;;;5.80;;
64353;SDS011;50681;53.334;-6.536;2022-09-09T03:06:51;14.07;;;5.87;;
64353;SDS011;50681;53.334;-6.536;2022-09-09T03:09:17;14.67;;;6.17;;
64353;SDS011;50681;53.334;-6.536;2022-09-09T03:11:49;23.40;;;5.43;;
64353;SDS011;50681;53.334;-6.536;2022-09-09T03:14:15;16.67;;;6.15;;
64353;SDS011;50681;53.334;-6.536;2022-09-09T03:16:48;16.00;;;6.88;;
64353;SDS011;50681;53.334;-6.536;2022-09-09T03:19:15;16.58;;;5.53;;
64353;SDS011;50681;53.334;-6.536;2022-09-09T03:21:42;17.00;;;5.97;;
64353;SDS011;50681;53.334;-6.536;2022-09-09T03:26:34;16.13;;;5.50;;
64353;SDS011;50681;53.334;-6.536;2022-09-09T03:28:59;12.23;;;6.13;;
64353;SDS011;50681;53.334;-6.536;2022-09-09T03:31:34;18.45;;;6.43;;
64353;SDS011;50681;53.334;-6.536;2022-09-09T03:34:01;21.35;;;6.55;;
64353;SDS011;50681;53.334;-6.536;2022-09-09T03:36:27;9.75;;;3.90;;
64353;SDS011;50681;53.334;-6.536;2022-09-09T03:38:55;19.55;;;6.20;;
64353;SDS011;50681;53.334;-6.536;2022-09-09T03:41:24;15.40;;;5.88;;
64353;SDS011;50681;53.334;-6.536;2022-09-09T03:43:50;12.77;;;5.85;;
64353;SDS011;50681;53.334;-6.536;2022-09-09T03:46:16;16.67;;;5.90;;
64353;SDS011;50681;53.334;-6.536;2022-09-09T03:48:42;18.48;;;6.53;;
64353;SDS011;50681;53.334;-6.536;2022-09-09T03:51:07;12.10;;;5.87;;
64353;SDS011;50681;53.334;-6.536;2022-09-09T03:53:35;17.08;;;6.55;;
64353;SDS011;50681;53.334;-6.536;2022-09-09T03:56:03;16.00;;;5.32;;
64353;SDS011;50681;53.334;-6.536;2022-09-09T03:58:31;14.90;;;5.07;;
64353;SDS011;50681;53.334;-6.536;2022-09-09T04:01:02;18.35;;;5.50;;
64353;SDS011;50681;53.334;-6.536;2022-09-09T04:03:30;18.17;;;6.35;;
64353;SDS011;50681;53.334;-6.536;2022-09-09T04:05:57;16.35;;;5.55;;
64353;SDS011;50681;53.334;-6.536;2022-09-09T04:08:23;11.80;;;5.85;;
64353;SDS011;50681;53.334;-6.536;2022-09-09T04:10:51;15.88;;;5.78;;
64353;SDS011;50681;53.334;-6.536;2022-09-09T04:13:16;7.65;;;4.32;;
64353;SDS011;50681;53.334;-6.536;2022-09-09T04:18:10;14.55;;;5.35;;
64353;SDS011;50681;53.334;-6.536;2022-09-09T04:20:36;12.57;;;4.60;;
64353;SDS011;50681;53.334;-6.536;2022-09-09T04:23:10;14.40;;;5.10;;
64353;SDS011;50681;53.334;-6.536;2022-09-09T04:25:35;18.27;;;5.93;;
64353;SDS011;50681;53.334;-6.536;2022-09-09T04:28:00;18.27;;;5.50;;
64353;SDS011;50681;53.334;-6.536;2022-09-09T04:30:27;11.50;;;5.53;;
64353;SDS011;50681;53.334;-6.536;2022-09-09T04:32:53;17.57;;;6.07;;
64353;SDS011;50681;53.334;-6.536;2022-09-09T04:35:23;16.52;;;5.40;;
64353;SDS011;50681;53.334;-6.536;2022-09-09T04:37:49;16.50;;;5.78;;
64353;SDS011;50681;53.334;-6.536;2022-09-09T04:40:15;11.23;;;5.93;;
64353;SDS011;50681;53.334;-6.536;2022-09-09T04:42:40;10.77;;;4.70;;
64353;SDS011;50681;53.334;-6.536;2022-09-09T04:45:09;19.58;;;5.78;;
64353;SDS011;50681;53.334;-6.536;2022-09-09T04:47:36;14.80;;;5.18;;
64353;SDS011;50681;53.334;-6.536;2022-09-09T04:50:02;14.45;;;5.22;;
64353;SDS011;50681;53.334;-6.536;2022-09-09T04:52:27;10.18;;;5.57;;
64353;SDS011;50681;53.334;-6.536;2022-09-09T04:54:53;16.07;;;5.90;;
64353;SDS011;50681;53.334;-6.536;2022-09-09T04:57:19;17.83;;;5.60;;
64353;SDS011;50681;53.334;-6.536;2022-09-09T04:59:44;11.32;;;5.00;;
64353;SDS011;50681;53.334;-6.536;2022-09-09T05:02:10;15.02;;;6.15;;
64353;SDS011;50681;53.334;-6.536;2022-09-09T05:04:36;15.30;;;6.00;;
64353;SDS011;50681;53.334;-6.536;2022-09-09T05:07:02;13.43;;;6.07;;
64353;SDS011;50681;53.334;-6.536;2022-09-09T05:09:27;13.73;;;5.60;;
64353;SDS011;50681;53.334;-6.536;2022-09-09T05:11:53;12.07;;;5.07;;
64353;SDS011;50681;53.334;-6.536;2022-09-09T05:14:18;12.70;;;5.77;;
64353;SDS011;50681;53.334;-6.536;2022-09-09T05:16:47;12.83;;;5.33;;
64353;SDS011;50681;53.334;-6.536;2022-09-09T05:19:12;13.02;;;4.93;;
64353;SDS011;50681;53.334;-6.536;2022-09-09T05:21:38;14.43;;;4.67;;
64353;SDS011;50681;53.334;-6.536;2022-09-09T05:24:03;13.63;;;4.43;;
64353;SDS011;50681;53.334;-6.536;2022-09-09T05:26:29;16.03;;;5.23;;
64353;SDS011;50681;53.334;-6.536;2022-09-09T05:28:55;13.80;;;4.35;;
64353;SDS011;50681;53.334;-6.536;2022-09-09T05:31:21;10.10;;;4.70;;
64353;SDS011;50681;53.334;-6.536;2022-09-09T05:33:46;15.70;;;6.03;;
64353;SDS011;50681;53.334;-6.536;2022-09-09T05:36:15;13.32;;;5.10;;
64353;SDS011;50681;53.334;-6.536;2022-09-09T05:38:45;11.35;;;4.90;;
64353;SDS011;50681;53.334;-6.536;2022-09-09T05:41:12;10.43;;;3.78;;
64353;SDS011;50681;53.334;-6.536;2022-09-09T05:43:40;12.40;;;4.88;;
64353;SDS011;50681;53.334;-6.536;2022-09-09T05:46:10;16.20;;;5.20;;
64353;SDS011;50681;53.334;-6.536;2022-09-09T05:48:37;9.38;;;3.60;;
64353;SDS011;50681;53.334;-6.536;2022-09-09T05:51:05;13.43;;;4.47;;
64353;SDS011;50681;53.334;-6.536;2022-09-09T05:53:33;9.35;;;4.32;;
64353;SDS011;50681;53.334;-6.536;2022-09-09T05:56:00;10.50;;;4.53;;
64353;SDS011;50681;53.334;-6.536;2022-09-09T05:58:30;8.55;;;4.97;;
64353;SDS011;50681;53.334;-6.536;2022-09-09T06:01:05;7.07;;;3.90;;
64353;SDS011;50681;53.334;-6.536;2022-09-09T06:03:36;11.48;;;5.38;;
64353;SDS011;50681;53.334;-6.536;2022-09-09T06:06:21;13.48;;;4.78;;
64353;SDS011;50681;53.334;-6.536;2022-09-09T06:08:50;10.93;;;4.20;;
64353;SDS011;50681;53.334;-6.536;2022-09-09T06:11:18;14.93;;;5.20;;
64353;SDS011;50681;53.334;-6.536;2022-09-09T06:13:45;8.02;;;4.10;;
64353;SDS011;50681;53.334;-6.536;2022-09-09T06:16:15;15.53;;;5.17;;
64353;SDS011;50681;53.334;-6.536;2022-09-09T06:18:42;13.65;;;4.93;;
64353;SDS011;50681;53.334;-6.536;2022-09-09T06:21:23;7.57;;;4.18;;
64353;SDS011;50681;53.334;-6.536;2022-09-09T06:23:53;9.65;;;4.00;;
64353;SDS011;50681;53.334;-6.536;2022-09-09T06:26:20;16.30;;;4.87;;
64353;SDS011;50681;53.334;-6.536;2022-09-09T06:28:48;12.07;;;4.60;;
64353;SDS011;50681;53.334;-6.536;2022-09-09T06:31:15;17.42;;;4.68;;
64353;SDS011;50681;53.334;-6.536;2022-09-09T06:33:43;7.93;;;3.90;;
64353;SDS011;50681;53.334;-6.536;2022-09-09T06:36:28;10.25;;;4.60;;
64353;SDS011;50681;53.334;-6.536;2022-09-09T06:38:55;8.70;;;3.70;;
64353;SDS011;50681;53.334;-6.536;2022-09-09T06:41:22;7.55;;;3.45;;
64353;SDS011;50681;53.334;-6.536;2022-09-09T06:43:51;9.48;;;4.03;;
64353;SDS011;50681;53.334;-6.536;2022-09-09T06:46:21;9.55;;;4.22;;
64353;SDS011;50681;53.334;-6.536;2022-09-09T06:48:48;10.23;;;3.33;;
64353;SDS011;50681;53.334;-6.536;2022-09-09T06:51:15;8.32;;;3.10;;
64353;SDS011;50681;53.334;-6.536;2022-09-09T06:53:51;10.90;;;3.60;;
64353;SDS011;50681;53.334;-6.536;2022-09-09T06:58:59;14.48;;;3.45;;
64353;SDS011;50681;53.334;-6.536;2022-09-09T07:01:38;5.55;;;3.35;;
64353;SDS011;50681;53.334;-6.536;2022-09-09T07:04:16;7.00;;;3.58;;
64353;SDS011;50681;53.334;-6.536;2022-09-09T07:06:43;6.90;;;4.03;;
64353;SDS011;50681;53.334;-6.536;2022-09-09T07:09:12;6.47;;;3.38;;
64353;SDS011;50681;53.334;-6.536;2022-09-09T07:11:44;7.25;;;3.35;;
64353;SDS011;50681;53.334;-6.536;2022-09-09T07:14:14;5.40;;;3.10;;
64353;SDS011;50681;53.334;-6.536;2022-09-09T07:16:41;8.30;;;3.15;;
64353;SDS011;50681;53.334;-6.536;2022-09-09T07:19:07;8.13;;;3.63;;
64353;SDS011;50681;53.334;-6.536;2022-09-09T07:21:33;8.30;;;3.33;;
64353;SDS011;50681;53.334;-6.536;2022-09-09T07:23:59;7.43;;;3.42;;
64353;SDS011;50681;53.334;-6.536;2022-09-09T07:28:52;6.60;;;3.25;;
64353;SDS011;50681;53.334;-6.536;2022-09-09T07:31:20;10.63;;;3.90;;
64353;SDS011;50681;53.334;-6.536;2022-09-09T07:33:51;4.10;;;2.40;;
64353;SDS011;50681;53.334;-6.536;2022-09-09T07:36:27;4.90;;;2.60;;
64353;SDS011;50681;53.334;-6.536;2022-09-09T07:38:56;6.30;;;2.75;;
64353;SDS011;50681;53.334;-6.536;2022-09-09T07:41:32;9.85;;;3.38;;
64353;SDS011;50681;53.334;-6.536;2022-09-09T07:44:06;12.60;;;3.08;;
64353;SDS011;50681;53.334;-6.536;2022-09-09T07:46:37;4.68;;;2.90;;
64353;SDS011;50681;53.334;-6.536;2022-09-09T07:49:04;7.78;;;4.18;;
64353;SDS011;50681;53.334;-6.536;2022-09-09T07:51:31;6.25;;;3.47;;
64353;SDS011;50681;53.334;-6.536;2022-09-09T07:53:59;7.07;;;3.55;;
64353;SDS011;50681;53.334;-6.536;2022-09-09T07:56:27;9.30;;;3.30;;
64353;SDS011;50681;53.334;-6.536;2022-09-09T07:58:54;9.30;;;4.07;;
64353;SDS011;50681;53.334;-6.536;2022-09-09T08:01:31;11.05;;;3.47;;
64353;SDS011;50681;53.334;-6.536;2022-09-09T08:04:04;6.50;;;3.95;;
64353;SDS011;50681;53.334;-6.536;2022-09-09T08:06:49;7.50;;;4.15;;
64353;SDS011;50681;53.334;-6.536;2022-09-09T08:09:17;19.30;;;4.70;;
64353;SDS011;50681;53.334;-6.536;2022-09-09T08:14:22;15.68;;;5.00;;
64353;SDS011;50681;53.334;-6.536;2022-09-09T08:16:49;20.35;;;4.45;;
64353;SDS011;50681;53.334;-6.536;2022-09-09T08:19:15;7.90;;;4.28;;
64353;SDS011;50681;53.334;-6.536;2022-09-09T08:21:42;6.80;;;3.70;;
64353;SDS011;50681;53.334;-6.536;2022-09-09T08:24:10;8.13;;;3.88;;
64353;SDS011;50681;53.334;-6.536;2022-09-09T08:26:40;6.95;;;3.50;;
64353;SDS011;50681;53.334;-6.536;2022-09-09T08:29:08;11.00;;;4.15;;
64353;SDS011;50681;53.334;-6.536;2022-09-09T08:31:48;10.02;;;3.97;;
64353;SDS011;50681;53.334;-6.536;2022-09-09T08:34:16;11.55;;;3.88;;
64353;SDS011;50681;53.334;-6.536;2022-09-09T08:36:45;10.05;;;3.70;;
64353;SDS011;50681;53.334;-6.536;2022-09-09T08:39:13;8.07;;;3.35;;
64353;SDS011;50681;53.334;-6.536;2022-09-09T08:54:33;12.93;;;3.35;;
64353;SDS011;50681;53.334;-6.536;2022-09-09T08:57:01;7.45;;;3.58;;
64353;SDS011;50681;53.334;-6.536;2022-09-09T08:59:32;11.85;;;3.45;;
64353;SDS011;50681;53.334;-6.536;2022-09-09T09:10:48;14.25;;;3.80;;
64353;SDS011;50681;53.334;-6.536;2022-09-09T09:13:18;6.45;;;3.42;;
64353;SDS011;50681;53.334;-6.536;2022-09-09T09:15:46;12.95;;;3.53;;
64353;SDS011;50681;53.334;-6.536;2022-09-09T09:18:17;6.70;;;3.50;;
64353;SDS011;50681;53.334;-6.536;2022-09-09T09:23:29;11.55;;;3.47;;
64353;SDS011;50681;53.334;-6.536;2022-09-09T09:26:05;12.80;;;3.55;;
64353;SDS011;50681;53.334;-6.536;2022-09-09T09:28:34;10.48;;;3.10;;
64353;SDS011;50681;53.334;-6.536;2022-09-09T09:31:11;15.07;;;3.00;;
64353;SDS011;50681;53.334;-6.536;2022-09-09T09:36:07;8.30;;;3.10;;
64353;SDS011;50681;53.334;-6.536;2022-09-09T09:38:33;9.07;;;3.55;;
64353;SDS011;50681;53.334;-6.536;2022-09-09T09:41:00;9.35;;;2.80;;
64353;SDS011;50681;53.334;-6.536;2022-09-09T09:43:30;8.98;;;2.80;;
64353;SDS011;50681;53.334;-6.536;2022-09-09T09:45:57;6.93;;;2.20;;
64353;SDS011;50681;53.334;-6.536;2022-09-09T09:48:23;4.50;;;2.25;;
64353;SDS011;50681;53.334;-6.536;2022-09-09T09:55:56;11.02;;;2.30;;
64353;SDS011;50681;53.334;-6.536;2022-09-09T09:58:25;5.55;;;2.05;;
64353;SDS011;50681;53.334;-6.536;2022-09-09T10:00:53;10.77;;;2.45;;
64353;SDS011;50681;53.334;-6.536;2022-09-09T10:03:32;7.00;;;2.30;;
64353;SDS011;50681;53.334;-6.536;2022-09-09T10:06:02;11.07;;;2.60;;
64353;SDS011;50681;53.334;-6.536;2022-09-09T10:11:02;14.05;;;2.55;;
64353;SDS011;50681;53.334;-6.536;2022-09-09T10:24:41;4.60;;;1.50;;
64353;SDS011;50681;53.334;-6.536;2022-09-09T10:33:08;10.70;;;1.70;;
64353;SDS011;50681;53.334;-6.536;2022-09-09T10:38:40;3.47;;;1.58;;
64353;SDS011;50681;53.334;-6.536;2022-09-09T10:49:17;10.20;;;2.78;;
64353;SDS011;50681;53.334;-6.536;2022-09-09T10:52:04;6.10;;;2.47;;
64353;SDS011;50681;53.334;-6.536;2022-09-09T10:59:58;3.97;;;1.90;;
64353;SDS011;50681;53.334;-6.536;2022-09-09T11:02:30;6.32;;;2.05;;
64353;SDS011;50681;53.334;-6.536;2022-09-09T11:05:00;4.25;;;1.67;;
64353;SDS011;50681;53.334;-6.536;2022-09-09T11:07:47;3.53;;;1.35;;
64353;SDS011;50681;53.334;-6.536;2022-09-09T11:10:22;3.42;;;1.67;;
64353;SDS011;50681;53.334;-6.536;2022-09-09T11:13:05;6.95;;;1.48;;
64353;SDS011;50681;53.334;-6.536;2022-09-09T11:15:49;3.17;;;1.42;;
64353;SDS011;50681;53.334;-6.536;2022-09-09T11:18:21;3.83;;;1.30;;
64353;SDS011;50681;53.334;-6.536;2022-09-09T11:20:51;2.92;;;1.20;;
64353;SDS011;50681;53.334;-6.536;2022-09-09T11:23:26;2.67;;;1.00;;
64353;SDS011;50681;53.334;-6.536;2022-09-09T11:25:59;2.75;;;1.10;;
64353;SDS011;50681;53.334;-6.536;2022-09-09T11:28:46;3.70;;;1.30;;
64353;SDS011;50681;53.334;-6.536;2022-09-09T11:36:47;1.65;;;0.88;;
64353;SDS011;50681;53.334;-6.536;2022-09-09T11:41:49;5.15;;;1.15;;
64353;SDS011;50681;53.334;-6.536;2022-09-09T11:44:21;2.00;;;0.75;;
64353;SDS011;50681;53.334;-6.536;2022-09-09T11:46:53;1.60;;;0.80;;
64353;SDS011;50681;53.334;-6.536;2022-09-09T11:49:28;3.38;;;1.02;;
64353;SDS011;50681;53.334;-6.536;2022-09-09T11:52:12;5.73;;;1.10;;
64353;SDS011;50681;53.334;-6.536;2022-09-09T11:54:49;3.35;;;0.93;;
64353;SDS011;50681;53.334;-6.536;2022-09-09T11:57:31;1.27;;;0.73;;
64353;SDS011;50681;53.334;-6.536;2022-09-09T11:59:59;2.30;;;0.88;;
64353;SDS011;50681;53.334;-6.536;2022-09-09T12:02:26;3.20;;;1.15;;
64353;SDS011;50681;53.334;-6.536;2022-09-09T12:12:47;7.00;;;1.02;;
64353;SDS011;50681;53.334;-6.536;2022-09-09T12:17:42;3.60;;;1.07;;
64353;SDS011;50681;53.334;-6.536;2022-09-09T12:20:17;2.25;;;0.85;;
64353;SDS011;50681;53.334;-6.536;2022-09-09T12:28:01;2.17;;;1.00;;
64353;SDS011;50681;53.334;-6.536;2022-09-09T12:30:41;3.00;;;1.00;;
64353;SDS011;50681;53.334;-6.536;2022-09-09T12:33:16;1.65;;;0.90;;
64353;SDS011;50681;53.334;-6.536;2022-09-09T12:35:44;2.90;;;1.10;;
64353;SDS011;50681;53.334;-6.536;2022-09-09T12:38:15;1.38;;;0.75;;
64353;SDS011;50681;53.334;-6.536;2022-09-09T12:40:54;3.42;;;1.20;;
64353;SDS011;50681;53.334;-6.536;2022-09-09T12:43:21;2.15;;;1.13;;
64353;SDS011;50681;53.334;-6.536;2022-09-09T12:45:49;2.13;;;0.80;;
64353;SDS011;50681;53.334;-6.536;2022-09-09T12:48:21;4.85;;;1.00;;
64353;SDS011;50681;53.334;-6.536;2022-09-09T12:50:52;3.72;;;1.05;;
64353;SDS011;50681;53.334;-6.536;2022-09-09T12:55:57;2.67;;;0.90;;
64353;SDS011;50681;53.334;-6.536;2022-09-09T12:58:29;3.63;;;1.13;;
64353;SDS011;50681;53.334;-6.536;2022-09-09T13:00:59;2.80;;;1.08;;
64353;SDS011;50681;53.334;-6.536;2022-09-09T13:03:29;2.60;;;1.00;;
64353;SDS011;50681;53.334;-6.536;2022-09-09T13:05:57;4.82;;;1.23;;
64353;SDS011;50681;53.334;-6.536;2022-09-09T13:08:25;3.42;;;1.10;;
64353;SDS011;50681;53.334;-6.536;2022-09-09T13:10:59;2.70;;;1.10;;
64353;SDS011;50681;53.334;-6.536;2022-09-09T13:14:12;2.03;;;1.20;;
64353;SDS011;50681;53.334;-6.536;2022-09-09T13:16:29;3.20;;;1.38;;
64353;SDS011;50681;53.334;-6.536;2022-09-09T13:18:56;4.05;;;1.50;;
64353;SDS011;50681;53.334;-6.536;2022-09-09T13:21:33;5.60;;;1.65;;
64353;SDS011;50681;53.334;-6.536;2022-09-09T13:24:00;3.40;;;1.55;;
64353;SDS011;50681;53.334;-6.536;2022-09-09T13:26:28;3.50;;;1.60;;
64353;SDS011;50681;53.334;-6.536;2022-09-09T13:28:55;6.20;;;1.80;;
64353;SDS011;50681;53.334;-6.536;2022-09-09T13:31:34;6.40;;;1.80;;
64353;SDS011;50681;53.334;-6.536;2022-09-09T13:34:22;12.10;;;2.20;;
64353;SDS011;50681;53.334;-6.536;2022-09-09T13:36:58;32.10;;;2.42;;
64353;SDS011;50681;53.334;-6.536;2022-09-09T13:39:30;4.38;;;1.70;;
64353;SDS011;50681;53.334;-6.536;2022-09-09T13:41:58;5.78;;;1.75;;
64353;SDS011;50681;53.334;-6.536;2022-09-09T13:44:28;6.25;;;2.35;;
64353;SDS011;50681;53.334;-6.536;2022-09-09T13:47:15;4.25;;;2.00;;
64353;SDS011;50681;53.334;-6.536;2022-09-09T13:49:44;4.57;;;1.77;;
64353;SDS011;50681;53.334;-6.536;2022-09-09T13:52:17;13.73;;;2.55;;
64353;SDS011;50681;53.334;-6.536;2022-09-09T13:54:50;9.75;;;2.08;;
64353;SDS011;50681;53.334;-6.536;2022-09-09T13:57:21;41.45;;;4.30;;
64353;SDS011;50681;53.334;-6.536;2022-09-09T13:59:48;6.95;;;1.58;;
64353;SDS011;50681;53.334;-6.536;2022-09-09T14:02:15;3.25;;;1.17;;
64353;SDS011;50681;53.334;-6.536;2022-09-09T14:04:41;4.72;;;1.33;;
64353;SDS011;50681;53.334;-6.536;2022-09-09T14:07:14;1.42;;;0.80;;
64353;SDS011;50681;53.334;-6.536;2022-09-09T14:09:41;4.15;;;1.02;;
64353;SDS011;50681;53.334;-6.536;2022-09-09T14:12:13;13.75;;;1.30;;
64353;SDS011;50681;53.334;-6.536;2022-09-09T14:14:40;4.43;;;1.10;;
64353;SDS011;50681;53.334;-6.536;2022-09-09T14:17:07;2.35;;;0.85;;
64353;SDS011;50681;53.334;-6.536;2022-09-09T14:19:35;1.85;;;0.73;;
64353;SDS011;50681;53.334;-6.536;2022-09-09T14:22:02;3.70;;;0.98;;
64353;SDS011;50681;53.334;-6.536;2022-09-09T14:24:28;4.40;;;1.10;;
64353;SDS011;50681;53.334;-6.536;2022-09-09T14:26:53;2.40;;;1.10;;
64353;SDS011;50681;53.334;-6.536;2022-09-09T14:29:19;5.00;;;1.25;;
64353;SDS011;50681;53.334;-6.536;2022-09-09T14:31:45;8.98;;;2.28;;
64353;SDS011;50681;53.334;-6.536;2022-09-09T14:34:11;6.25;;;1.20;;
64353;SDS011;50681;53.334;-6.536;2022-09-09T14:36:37;7.75;;;1.13;;
64353;SDS011;50681;53.334;-6.536;2022-09-09T14:39:03;2.63;;;1.52;;
64353;SDS011;50681;53.334;-6.536;2022-09-09T14:41:29;2.50;;;1.00;;
64353;SDS011;50681;53.334;-6.536;2022-09-09T14:46:21;3.90;;;1.05;;
64353;SDS011;50681;53.334;-6.536;2022-09-09T14:48:46;3.22;;;1.10;;
64353;SDS011;50681;53.334;-6.536;2022-09-09T14:51:14;3.17;;;1.17;;
64353;SDS011;50681;53.334;-6.536;2022-09-09T14:53:44;3.38;;;1.00;;
64353;SDS011;50681;53.334;-6.536;2022-09-09T14:58:39;4.43;;;1.25;;
64353;SDS011;50681;53.334;-6.536;2022-09-09T15:01:06;4.28;;;1.42;;
64353;SDS011;50681;53.334;-6.536;2022-09-09T15:03:36;3.83;;;1.10;;
64353;SDS011;50681;53.334;-6.536;2022-09-09T15:06:09;4.30;;;1.40;;
64353;SDS011;50681;53.334;-6.536;2022-09-09T15:08:37;6.45;;;1.38;;
64353;SDS011;50681;53.334;-6.536;2022-09-09T15:11:04;3.67;;;1.30;;
64353;SDS011;50681;53.334;-6.536;2022-09-09T15:13:32;5.05;;;1.30;;
64353;SDS011;50681;53.334;-6.536;2022-09-09T15:18:35;3.40;;;1.50;;
64353;SDS011;50681;53.334;-6.536;2022-09-09T15:21:02;3.30;;;1.30;;
64353;SDS011;50681;53.334;-6.536;2022-09-09T15:23:32;3.40;;;1.20;;
64353;SDS011;50681;53.334;-6.536;2022-09-09T15:25:58;5.60;;;1.40;;
64353;SDS011;50681;53.334;-6.536;2022-09-09T15:28:24;3.47;;;1.13;;
64353;SDS011;50681;53.334;-6.536;2022-09-09T15:30:50;2.65;;;1.25;;
64353;SDS011;50681;53.334;-6.536;2022-09-09T15:33:17;5.05;;;1.90;;
64353;SDS011;50681;53.334;-6.536;2022-09-09T15:35:43;4.00;;;1.50;;
64353;SDS011;50681;53.334;-6.536;2022-09-09T15:38:09;3.65;;;1.90;;
64353;SDS011;50681;53.334;-6.536;2022-09-09T15:40:34;4.50;;;1.90;;
64353;SDS011;50681;53.334;-6.536;2022-09-09T15:43:00;6.85;;;1.60;;
64353;SDS011;50681;53.334;-6.536;2022-09-09T15:45:27;5.07;;;1.90;;
64353;SDS011;50681;53.334;-6.536;2022-09-09T15:47:52;3.90;;;1.50;;
64353;SDS011;50681;53.334;-6.536;2022-09-09T15:50:19;4.35;;;1.35;;
64353;SDS011;50681;53.334;-6.536;2022-09-09T15:52:45;6.05;;;2.08;;
64353;SDS011;50681;53.334;-6.536;2022-09-09T15:55:10;7.93;;;1.95;;
64353;SDS011;50681;53.334;-6.536;2022-09-09T15:57:36;3.63;;;1.67;;
64353;SDS011;50681;53.334;-6.536;2022-09-09T16:00:02;5.25;;;1.05;;
64353;SDS011;50681;53.334;-6.536;2022-09-09T16:02:29;3.08;;;1.15;;
64353;SDS011;50681;53.334;-6.536;2022-09-09T16:04:55;3.70;;;1.42;;
64353;SDS011;50681;53.334;-6.536;2022-09-09T16:07:22;4.78;;;1.33;;
64353;SDS011;50681;53.334;-6.536;2022-09-09T16:09:47;3.38;;;1.20;;
64353;SDS011;50681;53.334;-6.536;2022-09-09T16:12:15;2.28;;;0.90;;
64353;SDS011;50681;53.334;-6.536;2022-09-09T16:14:41;3.78;;;1.20;;
64353;SDS011;50681;53.334;-6.536;2022-09-09T16:17:06;6.05;;;1.50;;
64353;SDS011;50681;53.334;-6.536;2022-09-09T16:19:32;5.03;;;1.50;;
64353;SDS011;50681;53.334;-6.536;2022-09-09T16:21:59;6.32;;;1.70;;
64353;SDS011;50681;53.334;-6.536;2022-09-09T16:24:25;3.30;;;1.48;;
64353;SDS011;50681;53.334;-6.536;2022-09-09T16:26:52;6.88;;;1.63;;
64353;SDS011;50681;53.334;-6.536;2022-09-09T16:29:19;5.22;;;1.65;;
64353;SDS011;50681;53.334;-6.536;2022-09-09T16:31:50;3.63;;;1.60;;
64353;SDS011;50681;53.334;-6.536;2022-09-09T16:34:17;5.53;;;1.60;;
64353;SDS011;50681;53.334;-6.536;2022-09-09T16:36:43;2.80;;;1.40;;
64353;SDS011;50681;53.334;-6.536;2022-09-09T16:39:10;6.10;;;1.45;;
64353;SDS011;50681;53.334;-6.536;2022-09-09T16:41:38;3.58;;;1.40;;
64353;SDS011;50681;53.334;-6.536;2022-09-09T16:44:23;4.78;;;1.58;;
64353;SDS011;50681;53.334;-6.536;2022-09-09T16:54:22;5.68;;;2.22;;
64353;SDS011;50681;53.334;-6.536;2022-09-09T16:57:20;7.45;;;1.67;;
64353;SDS011;50681;53.334;-6.536;2022-09-09T16:59:56;5.93;;;2.17;;
64353;SDS011;50681;53.334;-6.536;2022-09-09T17:02:24;4.05;;;1.52;;
64353;SDS011;50681;53.334;-6.536;2022-09-09T17:04:50;2.92;;;1.38;;
64353;SDS011;50681;53.334;-6.536;2022-09-09T17:07:15;3.38;;;1.60;;
64353;SDS011;50681;53.334;-6.536;2022-09-09T17:09:41;4.05;;;1.48;;
64353;SDS011;50681;53.334;-6.536;2022-09-09T17:12:07;10.57;;;2.00;;
64353;SDS011;50681;53.334;-6.536;2022-09-09T17:14:33;3.33;;;1.65;;
64353;SDS011;50681;53.334;-6.536;2022-09-09T17:16:59;4.95;;;1.40;;
64353;SDS011;50681;53.334;-6.536;2022-09-09T17:19:27;4.88;;;1.33;;
64353;SDS011;50681;53.334;-6.536;2022-09-09T17:21:53;3.28;;;1.50;;
64353;SDS011;50681;53.334;-6.536;2022-09-09T17:24:19;3.83;;;1.50;;
64353;SDS011;50681;53.334;-6.536;2022-09-09T17:26:44;3.80;;;1.67;;
64353;SDS011;50681;53.334;-6.536;2022-09-09T17:29:10;3.33;;;1.50;;
64353;SDS011;50681;53.334;-6.536;2022-09-09T17:31:36;8.68;;;1.40;;
64353;SDS011;50681;53.334;-6.536;2022-09-09T17:34:01;8.60;;;4.15;;
64353;SDS011;50681;53.334;-6.536;2022-09-09T17:36:32;5.45;;;2.00;;
64353;SDS011;50681;53.334;-6.536;2022-09-09T17:38:58;5.05;;;2.10;;
64353;SDS011;50681;53.334;-6.536;2022-09-09T17:41:34;7.60;;;3.53;;
64353;SDS011;50681;53.334;-6.536;2022-09-09T17:44:04;7.35;;;2.55;;